Airfield :
LOGIN :

Register | Disclaimer

   EN    FR    IT 

 










Legend :    VFR   Marginal VFR   IFR   Intensive IFR   Very Intensive IFR
Visi :
Ceiling :
>= 8 km
>= 3000ft
5 to 8 km
1000 to 3000 ft
1500m to 5 km
500 to 1000 ft
800 to 1500m
200 to 500 ft
< 800m
< 200 ft
Symbols :   Thunderstorms  Fog  Heavy snow  Heavy precipitations  Wind > 20 kt
SIGMETs :     Misc.  Thunderstorms  Icing  Turbulence  Mountain Waves  Volcanic Ashes






- Airport Elevation : 1674 ft
- IATA code : BRN


LSZB - Bern Belp

CURRENT METAR :
  • 270150Z AUTO VRB01KT 3200 BR SCT001 OVC019 OVC021 01/00 Q1019

EXPIRED METARs :
  • 270120Z AUTO VRB01KT 1300 R14/0900U BR FEW025 SCT070 BKN080 01/00 Q1019
  • 270050Z AUTO VRB01KT 4000 BR BKN022 01/01 Q1019
  • 270020Z AUTO VRB01KT 4500 BR BKN065 BKN085 01/01 Q1019
  • 262350Z AUTO VRB02KT 4600 BR FEW045 OVC065 01/01 Q1019
  • 262320Z AUTO VRB01KT 3900 BR OVC065 02/02 Q1019

Expired Forecast.
ATIS : +41 22 417 40 76



MET'MAP, your aeronautical weather chart ! - Copyright ORBIFLY December 2007 - Disclaimer

ORBIFLY MET'MAP TEAM :

Programming & Development : Alexandra Zaïnal
Concept & original design : Baudouin d'Aumeries
Assistance for programming : Marc-Olivier Méhu
Technical & hardware support : Manuel Goepfert

Contact : metmap@orbifly.com




SOURCES & CREDITS :

   NOAA